createdAt,value
2019-05-11T00:00:18.449Z,0
2019-05-11T00:03:49.962Z,0
2019-05-11T00:09:13.796Z,0
2019-05-11T00:09:57.776Z,0
2019-05-11T00:10:34.566Z,0
2019-05-11T00:11:14.972Z,0
2019-05-11T00:11:55.374Z,0
2019-05-11T00:12:35.753Z,0
2019-05-11T00:13:17.654Z,0
2019-05-11T00:13:58.026Z,0
2019-05-11T00:14:38.377Z,0
2019-05-11T00:24:54.766Z,0
2019-05-11T00:25:34.825Z,0
2019-05-11T00:26:15.370Z,0
2019-05-11T00:26:55.791Z,0
2019-05-11T00:31:40.393Z,0
2019-05-11T00:32:22.843Z,0
2019-05-11T00:33:01.263Z,0
2019-05-11T00:33:41.666Z,0
2019-05-11T00:34:22.080Z,0
2019-05-11T00:35:02.492Z,0
2019-05-11T00:35:42.935Z,0
2019-05-11T00:36:23.325Z,0
2019-05-11T00:37:03.727Z,0
2019-05-11T00:37:44.120Z,0
2019-05-11T00:38:24.518Z,0
2019-05-11T00:39:04.859Z,0
2019-05-11T00:44:01.755Z,0
2019-05-11T00:44:42.183Z,0
2019-05-11T00:45:22.603Z,0
2019-05-11T00:52:06.747Z,0
2019-05-11T00:52:47.191Z,0
2019-05-11T00:53:27.618Z,0
2019-05-11T00:54:08.027Z,0
2019-05-11T00:54:48.403Z,0
2019-05-11T00:55:28.844Z,0
2019-05-11T00:56:09.234Z,0
2019-05-11T00:56:49.654Z,0
2019-05-11T00:57:30.050Z,0
2019-05-11T00:58:10.459Z,0
2019-05-11T00:58:51.100Z,0
2019-05-11T00:59:31.283Z,0
2019-05-11T01:08:16.763Z,0
2019-05-11T01:08:57.186Z,0
2019-05-11T01:09:37.591Z,0
2019-05-11T01:10:25.374Z,0
2019-05-11T01:10:58.412Z,0
2019-05-11T01:11:38.820Z,0
2019-05-11T01:12:19.255Z,0
2019-05-11T01:17:47.506Z,0
2019-05-11T01:18:28.194Z,0
2019-05-11T01:19:08.630Z,0
2019-05-11T01:19:48.959Z,0
2019-05-11T01:20:29.347Z,0
2019-05-11T01:21:09.846Z,0
2019-05-11T01:21:50.206Z,0
2019-05-11T01:22:30.600Z,0
2019-05-11T01:23:10.995Z,0
2019-05-11T01:27:56.740Z,0
2019-05-11T01:28:37.173Z,0
2019-05-11T01:29:17.561Z,0
2019-05-11T01:29:57.976Z,0
2019-05-11T01:30:39.002Z,0
2019-05-11T01:31:19.374Z,0
2019-05-11T01:31:59.653Z,0
2019-05-11T01:32:40.431Z,0
2019-05-11T01:33:20.838Z,0
2019-05-11T01:34:01.225Z,0
2019-05-11T01:40:06.896Z,0
2019-05-11T01:40:57.977Z,0
2019-05-11T01:41:27.597Z,0
2019-05-11T01:42:08.062Z,0
2019-05-11T01:42:48.347Z,0
2019-05-11T01:43:28.682Z,0
2019-05-11T01:50:17.191Z,0
2019-05-11T01:50:57.564Z,0
2019-05-11T01:51:37.936Z,0
2019-05-11T01:52:18.366Z,0
2019-05-11T01:52:58.741Z,0
2019-05-11T01:57:47.478Z,0
2019-05-11T01:58:28.053Z,0
2019-05-11T01:59:21.461Z,0
2019-05-11T02:00:01.543Z,0
2019-05-11T02:03:27.902Z,0
2019-05-11T02:04:10.144Z,0
2019-05-11T02:04:50.553Z,0
2019-05-11T02:05:31.182Z,0
2019-05-11T02:09:51.293Z,0
2019-05-11T02:10:31.761Z,0
2019-05-11T02:12:01.593Z,0
2019-05-11T02:16:46.585Z,0
2019-05-11T02:17:26.880Z,0
2019-05-11T02:18:07.248Z,0
2019-05-11T02:18:48.811Z,0
2019-05-11T02:19:29.172Z,0
2019-05-11T02:20:09.536Z,0
2019-05-11T02:20:49.992Z,0
2019-05-11T02:21:30.417Z,0
2019-05-11T02:25:36.699Z,0
2019-05-11T02:26:17.111Z,0
2019-05-11T02:26:57.499Z,0
2019-05-11T02:27:37.907Z,0
2019-05-11T02:28:18.413Z,0
2019-05-11T02:29:41.731Z,0
2019-05-11T02:30:21.450Z,0
2019-05-11T02:35:09.810Z,0
2019-05-11T02:35:50.216Z,0
2019-05-11T02:36:30.599Z,0
2019-05-11T02:37:10.973Z,0
2019-05-11T02:37:51.401Z,0
2019-05-11T02:43:56.645Z,0
2019-05-11T02:44:37.232Z,0
2019-05-11T02:45:17.660Z,0
2019-05-11T02:45:57.914Z,0
2019-05-11T02:46:38.289Z,0
2019-05-11T02:47:18.691Z,0
2019-05-11T02:47:59.051Z,0
2019-05-11T02:48:39.434Z,0
2019-05-11T02:49:19.813Z,0
2019-05-11T02:50:01.026Z,0
2019-05-11T02:54:47.223Z,0
2019-05-11T02:55:27.399Z,0
2019-05-11T02:56:07.781Z,0
2019-05-11T02:56:48.121Z,0
2019-05-11T02:57:28.525Z,0
2019-05-11T02:58:08.930Z,0
2019-05-11T02:58:49.505Z,0
2019-05-11T02:59:30.165Z,0
2019-05-11T03:00:10.236Z,0
2019-05-11T03:00:50.703Z,0
2019-05-11T03:01:31.023Z,0
2019-05-11T03:02:12.307Z,0
2019-05-11T03:08:18.185Z,0
2019-05-11T03:08:58.546Z,0
2019-05-11T03:09:38.963Z,0
2019-05-11T03:10:19.357Z,0
2019-05-11T03:10:59.725Z,0
2019-05-11T03:11:54.649Z,0
2019-05-11T03:12:21.290Z,0
2019-05-11T03:17:46.489Z,0
2019-05-11T03:18:26.822Z,0
2019-05-11T03:19:07.779Z,0
2019-05-11T03:19:47.900Z,0
2019-05-11T03:20:28.272Z,0
2019-05-11T03:21:08.654Z,0
2019-05-11T03:21:49.060Z,0
2019-05-11T03:22:29.432Z,0
2019-05-11T03:23:10.002Z,0
2019-05-11T03:23:50.190Z,0
2019-05-11T03:24:30.610Z,0
2019-05-11T03:25:11.036Z,0
2019-05-11T03:25:51.375Z,0
2019-05-11T03:34:36.834Z,0
2019-05-11T03:35:17.247Z,0
2019-05-11T03:35:57.834Z,0
2019-05-11T03:36:38.210Z,0
2019-05-11T03:37:18.603Z,0
2019-05-11T03:37:59.029Z,0
2019-05-11T03:38:39.412Z,0
2019-05-11T03:39:19.754Z,0
2019-05-11T03:40:00.171Z,0
2019-05-11T03:40:40.584Z,0
2019-05-11T03:41:21.020Z,0
2019-05-11T03:42:13.615Z,0
2019-05-11T03:49:26.798Z,0
2019-05-11T03:50:07.194Z,0
2019-05-11T03:50:47.593Z,0
2019-05-11T03:51:27.966Z,0
2019-05-11T03:58:02.521Z,0
2019-05-11T03:58:43.795Z,0
2019-05-11T03:59:24.204Z,0
2019-05-11T04:02:07.423Z,0
2019-05-11T04:02:47.835Z,0
2019-05-11T04:03:28.182Z,0
2019-05-11T04:04:08.555Z,0
2019-05-11T04:04:48.957Z,0
2019-05-11T04:05:29.345Z,0
2019-05-11T04:06:09.706Z,0
2019-05-11T04:06:50.174Z,0
2019-05-11T04:09:37.101Z,0
2019-05-11T04:10:17.589Z,0
2019-05-11T04:10:57.991Z,0
2019-05-11T04:11:38.413Z,0
2019-05-11T04:12:33.782Z,0
2019-05-11T04:12:59.368Z,0
2019-05-11T04:13:41.389Z,0
2019-05-11T04:14:21.909Z,0
2019-05-11T04:20:27.411Z,0
2019-05-11T04:21:07.793Z,0
2019-05-11T04:21:51.957Z,0
2019-05-11T04:25:17.309Z,0
2019-05-11T04:26:41.717Z,0
2019-05-11T05:16:52.807Z,0
2019-05-11T05:17:33.182Z,0
2019-05-11T05:18:16.374Z,0
2019-05-11T05:19:00.488Z,0
2019-05-11T05:19:40.876Z,0
2019-05-11T05:20:21.433Z,0
2019-05-11T05:21:03.346Z,0
2019-05-11T05:24:08.516Z,0
2019-05-11T05:24:47.530Z,0
2019-05-11T05:25:28.829Z,0
2019-05-11T05:26:13.552Z,0
2019-05-11T05:30:17.111Z,0
2019-05-11T05:30:58.638Z,0
2019-05-11T05:31:38.982Z,0
2019-05-11T05:32:21.304Z,0
2019-05-11T05:34:27.307Z,0
2019-05-11T05:35:08.714Z,0
2019-05-11T05:36:39.157Z,0
2019-05-11T05:37:19.589Z,0
2019-05-11T05:38:00.965Z,0
2019-05-11T05:48:45.870Z,5
2019-05-11T05:49:26.387Z,0
2019-05-11T05:50:06.684Z,0
2019-05-11T05:51:30.357Z,0
2019-05-11T05:52:13.136Z,0
2019-05-11T05:52:53.563Z,0
2019-05-11T05:53:33.909Z,0
2019-05-11T05:54:14.384Z,0
2019-05-11T06:00:59.362Z,0
2019-05-11T06:01:39.874Z,0
2019-05-11T06:07:09.621Z,5
2019-05-11T06:07:52.127Z,5
2019-05-11T06:11:20.459Z,5
2019-05-11T06:12:01.128Z,5
2019-05-11T06:12:41.317Z,5
2019-05-11T06:13:21.694Z,5
2019-05-11T06:14:02.026Z,5
2019-05-11T06:14:42.596Z,5
2019-05-11T06:15:24.038Z,5
2019-05-11T06:18:09.672Z,5
2019-05-11T06:18:50.077Z,5
2019-05-11T06:19:30.485Z,5
2019-05-11T06:20:10.903Z,5
2019-05-11T06:20:51.390Z,5
2019-05-11T06:21:31.660Z,5
2019-05-11T06:22:11.989Z,5
2019-05-11T06:22:52.527Z,5
2019-05-11T06:23:32.929Z,5
2019-05-11T06:24:13.706Z,5
2019-05-11T06:24:53.756Z,5
2019-05-11T06:25:34.199Z,5
2019-05-11T06:28:19.427Z,5
2019-05-11T06:29:00.738Z,5
2019-05-11T06:29:42.958Z,5
2019-05-11T06:30:23.458Z,5
2019-05-11T06:33:55.737Z,5
2019-05-11T06:34:37.935Z,5
2019-05-11T06:41:06.352Z,5
2019-05-11T06:41:46.980Z,5
2019-05-11T06:42:27.297Z,5
2019-05-11T06:45:10.824Z,5
2019-05-11T06:45:53.114Z,5
2019-05-11T06:46:35.062Z,5
2019-05-11T06:47:14.491Z,5
2019-05-11T06:47:54.274Z,5
2019-05-11T06:54:40.270Z,5
2019-05-11T06:55:20.603Z,5
2019-05-11T06:56:00.949Z,5
2019-05-11T06:56:41.372Z,5
2019-05-11T06:57:23.557Z,5
2019-05-11T06:58:05.534Z,5
2019-05-11T07:00:12.637Z,5
2019-05-11T07:00:53.175Z,5
2019-05-11T07:01:34.473Z,5
2019-05-11T07:03:44.187Z,5
2019-05-11T07:04:24.649Z,5
2019-05-11T07:05:05.045Z,5
2019-05-11T07:09:53.384Z,10
2019-05-11T07:10:34.494Z,10
2019-05-11T07:11:14.904Z,10
2019-05-11T07:11:55.292Z,10
2019-05-11T07:16:01.622Z,10
2019-05-11T07:16:43.608Z,10
2019-05-11T07:17:23.943Z,10
2019-05-11T07:18:04.302Z,10
2019-05-11T07:18:44.705Z,10
2019-05-11T07:19:25.222Z,10
2019-05-11T07:30:26.767Z,10
2019-05-11T07:31:07.912Z,10
2019-05-11T07:31:49.551Z,10
2019-05-11T07:32:29.701Z,10
2019-05-11T07:33:12.657Z,10
2019-05-11T07:33:55.509Z,10
2019-05-11T07:37:23.989Z,15
2019-05-11T07:38:01.193Z,15
2019-05-11T07:38:41.703Z,15
2019-05-11T07:39:23.023Z,15
2019-05-11T07:41:30.877Z,15
2019-05-11T07:42:13.349Z,15
2019-05-11T07:42:53.823Z,15
2019-05-11T07:47:02.345Z,15
2019-05-11T07:50:30.051Z,15
2019-05-11T07:51:10.153Z,15
2019-05-11T07:51:50.575Z,15
2019-05-11T07:52:31.957Z,15
2019-05-11T07:55:20.487Z,15
2019-05-11T07:56:04.804Z,15
2019-05-11T07:58:49.865Z,15
2019-05-11T07:59:31.320Z,15
2019-05-11T08:07:47.821Z,10
2019-05-11T08:08:30.741Z,10
2019-05-11T08:09:11.134Z,10
2019-05-11T08:09:51.592Z,10
2019-05-11T08:14:55.341Z,10
2019-05-11T08:15:20.194Z,10
2019-05-11T08:17:34.202Z,10
2019-05-11T08:18:14.620Z,10
2019-05-11T08:18:55.039Z,10
2019-05-11T08:20:59.859Z,10
2019-05-11T08:21:40.181Z,10
2019-05-11T08:22:22.924Z,10
2019-05-11T08:23:01.093Z,10
2019-05-11T08:26:28.611Z,15
2019-05-11T08:27:08.989Z,15
2019-05-11T08:27:49.654Z,15
2019-05-11T08:28:30.218Z,15
2019-05-11T08:29:10.656Z,15
2019-05-11T08:29:52.521Z,15
2019-05-11T08:32:38.812Z,15
2019-05-11T08:33:22.754Z,15
2019-05-11T08:34:03.183Z,15
2019-05-11T08:34:43.477Z,15
2019-05-11T08:37:29.517Z,20
2019-05-11T08:38:09.694Z,20
2019-05-11T08:38:50.083Z,20
2019-05-11T08:39:30.487Z,20
2019-05-11T08:40:19.819Z,20
2019-05-11T08:41:00.149Z,20
2019-05-11T08:41:40.548Z,20
2019-05-11T08:42:21.088Z,20
2019-05-11T08:43:01.344Z,20
2019-05-11T08:47:54.147Z,20
2019-05-11T08:49:59.180Z,20
2019-05-11T08:50:39.596Z,20
2019-05-11T08:52:01.351Z,20
2019-05-11T08:54:34.837Z,20
2019-05-11T08:55:14.885Z,20
2019-05-11T08:55:58.778Z,20
2019-05-11T08:56:41.962Z,25
2019-05-11T08:57:22.948Z,25
2019-05-11T08:58:03.258Z,25
2019-05-11T09:01:44.737Z,25
2019-05-11T09:02:24.744Z,25
2019-05-11T09:03:05.334Z,30
2019-05-11T09:06:29.410Z,30
2019-05-11T09:07:11.381Z,30
2019-05-11T09:07:51.894Z,30
2019-05-11T09:08:32.258Z,25
2019-05-11T09:11:18.981Z,30
2019-05-11T09:11:58.936Z,30
2019-05-11T09:12:38.794Z,30
2019-05-11T09:13:19.236Z,30
2019-05-11T09:13:59.650Z,30
2019-05-11T09:14:40.297Z,30
2019-05-11T09:15:33.290Z,30
2019-05-11T09:16:01.525Z,30
2019-05-11T09:16:41.917Z,30
2019-05-11T09:17:23.001Z,30
2019-05-11T09:21:28.800Z,25
2019-05-11T09:22:12.312Z,25
2019-05-11T09:22:52.692Z,20
2019-05-11T09:28:34.623Z,15
2019-05-11T09:29:15.032Z,15
2019-05-11T09:29:55.475Z,15
2019-05-11T09:30:37.773Z,15
2019-05-11T09:35:19.813Z,20
2019-05-11T09:36:00.212Z,20
2019-05-11T09:36:40.839Z,20
2019-05-11T09:37:21.258Z,20
2019-05-11T09:38:01.802Z,25
2019-05-11T09:38:42.082Z,25
2019-05-11T09:39:23.360Z,25
2019-05-11T09:44:09.435Z,30
2019-05-11T09:44:53.456Z,30
2019-05-11T09:45:45.592Z,30
2019-05-11T09:46:14.213Z,30
2019-05-11T09:50:59.719Z,25
2019-05-11T09:51:40.951Z,25
2019-05-11T09:55:15.838Z,20
2019-05-11T09:57:19.381Z,20
2019-05-11T09:57:59.764Z,25
2019-05-11T09:58:42.180Z,25
2019-05-11T09:59:22.433Z,25
2019-05-11T10:00:03.303Z,30
2019-05-11T10:04:09.972Z,30
2019-05-11T10:04:50.375Z,30
2019-05-11T10:11:40.177Z,35
2019-05-11T10:12:20.499Z,35
2019-05-11T10:13:03.442Z,35
2019-05-11T10:13:43.870Z,35
2019-05-11T10:14:24.218Z,35
2019-05-11T10:19:08.446Z,40
2019-05-11T10:19:49.762Z,40
2019-05-11T10:20:29.666Z,40
2019-05-11T10:21:10.020Z,40
2019-05-11T10:22:32.444Z,40
2019-05-11T10:23:15.508Z,40
2019-05-11T10:23:57.927Z,40
2019-05-11T10:26:42.564Z,40
2019-05-11T10:27:22.987Z,40
2019-05-11T10:28:03.387Z,40
2019-05-11T10:28:43.774Z,40
2019-05-11T10:29:24.197Z,40
2019-05-11T11:06:53.470Z,75
2019-05-11T11:07:38.310Z,80
2019-05-11T11:08:18.508Z,80
2019-05-11T11:08:58.630Z,80
2019-05-11T11:12:20.702Z,85
2019-05-11T11:13:04.434Z,85
2019-05-11T11:13:44.602Z,90
2019-05-11T11:14:25.054Z,85
2019-05-11T11:15:07.511Z,80
2019-05-11T11:19:53.122Z,70
2019-05-11T11:20:34.142Z,70
2019-05-11T11:21:14.862Z,60
2019-05-11T11:22:02.139Z,60
2019-05-11T11:24:44.647Z,50
2019-05-11T11:25:24.973Z,50
2019-05-11T11:26:08.141Z,50
2019-05-11T11:26:48.554Z,50
2019-05-11T11:29:34.017Z,50
2019-05-11T11:30:18.068Z,50
2019-05-11T11:35:42.492Z,20
2019-05-11T11:36:23.151Z,20
2019-05-11T11:37:08.289Z,15
2019-05-11T11:38:37.546Z,15
2019-05-11T11:41:18.447Z,15
2019-05-11T11:41:58.529Z,20
2019-05-11T11:42:38.132Z,20
2019-05-11T11:44:00.918Z,20
2019-05-11T11:44:42.013Z,25
2019-05-11T11:45:22.947Z,25
2019-05-11T11:46:08.351Z,30
2019-05-11T11:48:50.858Z,45
2019-05-11T11:49:31.186Z,50
2019-05-11T11:52:00.739Z,55
2019-05-11T11:52:44.680Z,70
2019-05-11T11:53:22.049Z,65
2019-05-11T11:54:08.511Z,60
2019-05-11T11:54:50.425Z,40
2019-05-11T11:58:57.902Z,35
2019-05-11T11:59:38.442Z,45
2019-05-11T12:00:18.228Z,40
2019-05-11T12:00:58.646Z,40
2019-05-11T12:01:38.544Z,50
2019-05-11T12:02:19.263Z,55
2019-05-11T12:05:05.668Z,60
2019-05-11T12:05:47.676Z,60
2019-05-11T12:06:27.965Z,60
2019-05-11T12:07:08.404Z,65
2019-05-11T12:07:48.983Z,75
2019-05-11T12:08:28.179Z,75
2019-05-11T12:09:08.749Z,70
2019-05-11T12:09:48.707Z,70
2019-05-11T12:10:29.151Z,75
2019-05-11T12:11:09.452Z,80
2019-05-11T12:15:58.447Z,85
2019-05-11T12:16:38.760Z,85
2019-05-11T12:17:18.254Z,85
2019-05-11T12:17:58.862Z,80
2019-05-11T12:18:38.811Z,80
2019-05-11T12:19:19.138Z,85
2019-05-11T12:25:27.720Z,50
2019-05-11T12:26:08.445Z,50
2019-05-11T12:26:47.987Z,45
2019-05-11T12:27:28.648Z,45
2019-05-11T12:28:08.267Z,40
2019-05-11T12:28:49.075Z,40
2019-05-11T12:29:29.504Z,40
2019-05-11T12:30:09.929Z,40
2019-05-11T12:35:37.874Z,45
2019-05-11T12:36:18.882Z,45
2019-05-11T12:36:58.672Z,45
2019-05-11T12:37:39.278Z,45
2019-05-11T12:38:19.607Z,45
2019-05-11T12:39:00.039Z,45
2019-05-11T12:42:28.261Z,35
2019-05-11T12:43:08.120Z,30
2019-05-11T12:43:48.827Z,30
2019-05-11T12:44:28.331Z,25
2019-05-11T12:45:08.156Z,25
2019-05-11T12:45:48.486Z,25
2019-05-11T12:46:28.908Z,25
2019-05-11T12:47:20.903Z,30
2019-05-11T12:47:49.923Z,30
2019-05-11T12:55:55.476Z,40
2019-05-11T12:56:37.887Z,40
2019-05-11T12:57:18.423Z,40
2019-05-11T12:57:57.935Z,40
2019-05-11T12:58:39.409Z,40
2019-05-11T12:59:18.705Z,40
2019-05-11T12:59:58.364Z,45
2019-05-11T13:00:39.071Z,60
2019-05-11T13:01:19.114Z,70
2019-05-11T13:02:00.259Z,75
2019-05-11T13:08:07.758Z,40
2019-05-11T13:08:48.017Z,35
2019-05-11T13:09:28.770Z,35
2019-05-11T13:10:08.265Z,35
2019-05-11T13:10:48.945Z,35
2019-05-11T13:11:29.298Z,35
2019-05-11T13:12:09.712Z,35
2019-05-11T13:12:50.079Z,35
2019-05-11T13:14:57.788Z,35
2019-05-11T13:15:35.915Z,40
2019-05-11T13:16:18.264Z,40
2019-05-11T13:16:58.917Z,40
2019-05-11T13:17:40.651Z,40
2019-05-11T13:18:18.539Z,40
2019-05-11T13:19:00.045Z,40
2019-05-11T13:23:45.220Z,45
2019-05-11T13:24:28.330Z,55
2019-05-11T13:25:09.973Z,50
2019-05-11T13:31:55.440Z,50
2019-05-11T13:32:38.234Z,50
2019-05-11T13:33:18.749Z,50
2019-05-11T13:33:58.477Z,55
2019-05-11T13:34:38.702Z,55
2019-05-11T13:35:18.035Z,50
2019-05-11T13:35:58.332Z,45
2019-05-11T13:36:38.763Z,40
2019-05-11T13:40:45.234Z,15
2019-05-11T13:41:27.446Z,10
2019-05-11T13:42:08.040Z,10
2019-05-11T13:42:48.696Z,10
2019-05-11T13:43:28.190Z,10
2019-05-11T13:44:08.589Z,10
2019-05-11T13:44:49.940Z,10
2019-05-11T13:45:30.311Z,10
2019-05-11T13:50:58.066Z,25
2019-05-11T13:51:35.980Z,30
2019-05-11T13:52:18.279Z,30
2019-05-11T13:52:58.575Z,30
2019-05-11T13:53:38.920Z,35
2019-05-11T13:54:19.455Z,35
2019-05-11T13:54:59.985Z,35
2019-05-11T13:55:47.846Z,40
2019-05-11T13:56:28.435Z,40
2019-05-11T13:57:07.980Z,40
2019-05-11T13:57:48.513Z,40
2019-05-11T13:58:29.602Z,40
2019-05-11T14:05:58.176Z,45
2019-05-11T14:06:39.801Z,45
2019-05-11T14:12:07.555Z,55
2019-05-11T14:12:47.645Z,45
2019-05-11T14:13:28.747Z,45
2019-05-11T14:18:57.700Z,35
2019-05-11T14:19:38.425Z,35
2019-05-11T14:20:18.662Z,35
2019-05-11T14:20:58.581Z,35
2019-05-11T14:21:38.429Z,40
2019-05-11T14:22:17.998Z,40
2019-05-11T14:22:58.441Z,40
2019-05-11T14:23:38.918Z,45
2019-05-11T14:24:19.069Z,45
2019-05-11T14:24:59.840Z,50
2019-05-11T14:25:40.153Z,40
2019-05-11T14:28:25.379Z,40
2019-05-11T14:29:06.396Z,40
2019-05-11T14:29:48.044Z,40
2019-05-11T14:30:27.543Z,35
2019-05-11T14:35:16.067Z,35
2019-05-11T14:35:57.815Z,30
2019-05-11T14:36:38.705Z,30
2019-05-11T14:37:18.021Z,30
2019-05-11T14:37:58.713Z,30
2019-05-11T14:38:38.220Z,30
2019-05-11T14:39:19.048Z,30
2019-05-11T14:39:58.890Z,35
2019-05-11T14:40:40.540Z,35
2019-05-11T14:47:28.076Z,35
2019-05-11T14:48:22.007Z,30
2019-05-11T14:48:48.052Z,30
2019-05-11T14:49:27.674Z,35
2019-05-11T14:50:08.572Z,35
2019-05-11T14:50:49.740Z,35
2019-05-11T14:53:37.789Z,45
2019-05-11T14:54:18.721Z,50
2019-05-11T14:59:05.227Z,45
2019-05-11T14:59:48.231Z,35
2019-05-11T15:00:28.925Z,35
2019-05-11T15:01:08.790Z,30
2019-05-11T15:04:37.782Z,30
2019-05-11T15:05:17.967Z,30
2019-05-11T15:06:38.573Z,30
2019-05-11T15:07:17.692Z,30
2019-05-11T15:07:58.124Z,30
2019-05-11T15:08:38.668Z,30
2019-05-11T15:09:18.504Z,30
2019-05-11T15:12:45.815Z,25
2019-05-11T15:13:28.863Z,25
2019-05-11T15:14:08.810Z,20
2019-05-11T15:14:49.727Z,15
2019-05-11T15:18:55.691Z,10
2019-05-11T15:19:38.317Z,10
2019-05-11T15:20:18.794Z,10
2019-05-11T15:20:59.578Z,10
2019-05-11T15:21:40.092Z,10
2019-05-11T15:24:28.716Z,10
2019-05-11T15:25:08.073Z,10
2019-05-11T15:25:48.950Z,10
2019-05-11T15:26:29.488Z,10
2019-05-11T15:29:18.429Z,10
2019-05-11T15:29:58.763Z,15
2019-05-11T15:30:38.397Z,15
2019-05-11T15:31:22.287Z,15
2019-05-11T15:34:45.257Z,20
2019-05-11T15:35:28.414Z,25
2019-05-11T15:36:08.667Z,25
2019-05-11T15:36:49.399Z,25
2019-05-11T15:37:30.691Z,25
2019-05-11T15:38:17.823Z,30
2019-05-11T15:41:08.138Z,35
2019-05-11T15:41:47.956Z,35
2019-05-11T15:42:30.031Z,35
2019-05-11T15:47:15.264Z,35
2019-05-11T15:47:55.874Z,35
2019-05-11T15:48:53.255Z,35
2019-05-11T15:49:19.099Z,35
2019-05-11T15:50:09.441Z,30
2019-05-11T15:54:15.223Z,35
2019-05-11T15:54:58.515Z,35
2019-05-11T15:55:40.391Z,35
2019-05-11T15:56:20.173Z,35
2019-05-11T16:00:26.052Z,35
2019-05-11T16:01:07.896Z,35
2019-05-11T16:01:49.041Z,35
2019-05-11T16:02:29.640Z,35
2019-05-11T16:03:58.246Z,30
2019-05-11T16:04:41.284Z,30
2019-05-11T16:05:24.088Z,30
2019-05-11T16:08:50.322Z,25
2019-05-11T16:09:31.815Z,25
2019-05-11T16:10:12.257Z,30
2019-05-11T16:10:53.166Z,30
2019-05-11T16:12:18.467Z,30
2019-05-11T16:12:59.787Z,30
2019-05-11T16:17:05.439Z,30
2019-05-11T16:17:49.613Z,25
2019-05-11T16:23:15.131Z,25
2019-05-11T16:23:58.470Z,25
2019-05-11T16:26:08.498Z,25
2019-05-11T16:26:49.984Z,25
2019-05-11T17:09:49.131Z,20
2019-05-11T17:10:31.163Z,20
2019-05-11T17:11:11.549Z,20
2019-05-11T17:11:51.983Z,20
2019-05-11T17:15:58.475Z,20
2019-05-11T17:16:40.691Z,20
2019-05-11T17:17:22.614Z,20
2019-05-11T17:18:48.445Z,20
2019-05-11T17:19:42.690Z,25
2019-05-11T17:22:09.801Z,30
2019-05-11T17:22:53.152Z,30
2019-05-11T17:23:31.301Z,25
2019-05-11T17:24:11.184Z,25
2019-05-11T17:28:54.366Z,30
2019-05-11T17:29:34.824Z,30
2019-05-11T17:30:15.426Z,30
2019-05-11T17:30:58.618Z,30
2019-05-11T17:31:37.976Z,30
2019-05-11T17:32:17.724Z,25
2019-05-11T17:34:51.887Z,20
2019-05-11T17:35:34.552Z,20
2019-05-11T17:36:15.014Z,20
2019-05-11T17:36:57.753Z,20
2019-05-11T17:38:18.378Z,20
2019-05-11T17:38:58.241Z,20
2019-05-11T17:39:41.145Z,20
2019-05-11T17:45:08.033Z,15
2019-05-11T17:45:47.914Z,15
2019-05-11T17:47:08.387Z,15
2019-05-11T17:47:48.386Z,15
2019-05-11T17:48:28.795Z,20
2019-05-11T17:49:09.169Z,20
2019-05-11T17:49:59.446Z,20
2019-05-11T17:50:31.117Z,20
2019-05-11T17:51:21.051Z,20
2019-05-11T17:53:56.628Z,20
2019-05-11T17:54:38.301Z,20
2019-05-11T17:55:18.343Z,20
2019-05-11T17:55:58.054Z,20
2019-05-11T17:56:38.965Z,20
2019-05-11T17:57:20.332Z,20
2019-05-11T17:58:01.157Z,20
2019-05-11T17:58:41.136Z,15
2019-05-11T17:59:21.477Z,15
2019-05-11T18:00:48.017Z,15
2019-05-11T18:01:27.713Z,15
2019-05-11T18:02:09.454Z,15
2019-05-11T18:02:49.903Z,15
2019-05-11T18:06:18.369Z,15
2019-05-11T18:06:58.805Z,15
2019-05-11T18:07:38.496Z,15
2019-05-11T18:08:21.240Z,15
2019-05-11T18:10:28.270Z,15
2019-05-11T18:11:08.333Z,15
2019-05-11T18:11:48.335Z,15
2019-05-11T18:12:28.740Z,15
2019-05-11T18:13:09.464Z,15
2019-05-11T18:13:50.001Z,15
2019-05-11T18:14:32.079Z,15
2019-05-11T18:16:36.524Z,10
2019-05-11T18:17:17.852Z,10
2019-05-11T18:17:59.669Z,10
2019-05-11T18:18:40.204Z,10
2019-05-11T18:19:20.711Z,10
2019-05-11T18:20:13.614Z,10
2019-05-11T18:23:28.419Z,10
2019-05-11T18:24:09.051Z,10
2019-05-11T18:24:49.136Z,10
2019-05-11T18:25:29.331Z,10
2019-05-11T18:26:10.178Z,10
2019-05-11T18:32:59.372Z,5
2019-05-11T18:33:38.589Z,5
2019-05-11T18:38:27.773Z,5
2019-05-11T18:39:07.908Z,5
2019-05-11T18:39:53.111Z,5
2019-05-11T18:40:38.140Z,5
2019-05-11T18:43:09.315Z,5
2019-05-11T18:43:50.149Z,5
2019-05-11T18:44:31.369Z,5
2019-05-11T18:45:52.347Z,5
2019-05-11T18:46:33.218Z,5
2019-05-11T18:48:57.080Z,0
2019-05-11T18:49:39.708Z,0
2019-05-11T18:50:30.294Z,0
2019-05-11T18:51:00.747Z,0
2019-05-11T18:51:41.598Z,0
2019-05-11T18:55:08.551Z,0
2019-05-11T18:55:48.806Z,0
2019-05-11T18:56:30.041Z,0
2019-05-11T18:57:12.494Z,0
2019-05-11T19:02:02.741Z,0
2019-05-11T19:06:48.429Z,0
2019-05-11T19:07:28.351Z,0
2019-05-11T19:08:08.239Z,0
2019-05-11T19:08:48.789Z,0
2019-05-11T19:09:29.752Z,0
2019-05-11T19:10:10.604Z,0
2019-05-11T19:10:51.043Z,0
2019-05-11T19:14:23.277Z,0
2019-05-11T19:18:29.924Z,0
2019-05-11T19:19:10.646Z,0
2019-05-11T19:19:50.986Z,0
2019-05-11T19:22:32.473Z,0
2019-05-11T19:23:13.992Z,0
2019-05-11T19:23:57.999Z,0
2019-05-11T19:26:22.606Z,0
2019-05-11T19:27:11.623Z,0
2019-05-11T19:27:52.007Z,0
2019-05-11T19:28:35.878Z,0
2019-05-11T19:29:17.871Z,0
2019-05-11T19:29:56.934Z,0
2019-05-11T19:30:38.688Z,0
2019-05-11T19:31:19.285Z,0
2019-05-11T19:31:59.705Z,0
2019-05-11T19:35:28.101Z,0
2019-05-11T19:36:07.993Z,0
2019-05-11T19:38:58.376Z,0
2019-05-11T19:39:39.484Z,0
2019-05-11T19:43:25.071Z,0
2019-05-11T19:44:09.259Z,0
2019-05-11T19:44:51.133Z,0
2019-05-11T19:45:33.083Z,0
2019-05-11T19:46:15.783Z,0
2019-05-11T19:47:05.348Z,0
2019-05-11T19:47:48.941Z,0
2019-05-11T19:49:18.941Z,0
2019-05-11T19:52:05.633Z,0
2019-05-11T19:52:49.911Z,0
2019-05-11T19:54:57.752Z,0
2019-05-11T19:57:08.387Z,0
2019-05-11T19:58:35.282Z,0
2019-05-11T19:59:17.741Z,0
2019-05-11T19:59:59.962Z,0
2019-05-11T20:02:05.109Z,0
2019-05-11T20:02:45.488Z,0
2019-05-11T20:03:25.880Z,0
2019-05-11T20:04:08.204Z,0
2019-05-11T20:04:48.056Z,0
2019-05-11T20:05:28.745Z,0
2019-05-11T20:06:09.321Z,0
2019-05-11T20:06:49.730Z,0
2019-05-11T20:07:31.975Z,0
2019-05-11T20:10:59.965Z,0
2019-05-11T20:14:28.299Z,0
2019-05-11T20:15:08.909Z,0
2019-05-11T20:15:49.343Z,0
2019-05-11T20:16:29.652Z,0
2019-05-11T20:22:22.643Z,0
2019-05-11T20:23:04.915Z,0
2019-05-11T20:23:45.300Z,0
2019-05-11T20:24:28.062Z,0
2019-05-11T20:25:11.049Z,0
2019-05-11T20:26:38.957Z,0
2019-05-11T20:27:21.036Z,0
2019-05-11T20:28:01.649Z,0
2019-05-11T20:30:48.241Z,0
2019-05-11T20:31:31.902Z,0
2019-05-11T20:33:00.460Z,0
2019-05-11T20:35:49.198Z,0
2019-05-11T20:36:30.892Z,0
2019-05-11T20:37:11.949Z,0
2019-05-11T20:40:37.846Z,0
2019-05-11T20:41:18.974Z,0
2019-05-11T20:41:59.342Z,0
2019-05-11T20:43:20.223Z,0
2019-05-11T20:44:01.580Z,0
2019-05-11T20:44:41.960Z,0
2019-05-11T20:49:29.970Z,0
2019-05-11T20:50:10.365Z,0
2019-05-11T20:50:51.683Z,0
2019-05-11T20:52:58.503Z,0
2019-05-11T20:53:38.934Z,0
2019-05-11T20:54:19.642Z,0
2019-05-11T20:55:01.650Z,0
2019-05-11T20:57:08.887Z,0
2019-05-11T20:57:49.673Z,0
2019-05-11T20:58:30.661Z,0
2019-05-11T20:59:11.116Z,0
2019-05-11T20:59:51.532Z,0
2019-05-11T21:00:32.086Z,0
2019-05-11T21:03:17.353Z,0
2019-05-11T21:03:58.394Z,0
2019-05-11T21:04:38.743Z,0
2019-05-11T21:06:08.368Z,0
2019-05-11T21:06:53.117Z,0
2019-05-11T21:08:17.685Z,0
2019-05-11T21:08:59.626Z,0
2019-05-11T21:09:40.541Z,0
2019-05-11T21:10:21.959Z,0
2019-05-11T21:13:50.981Z,0
2019-05-11T21:15:23.359Z,0
2019-05-11T21:16:47.834Z,0
2019-05-11T21:17:29.532Z,0
2019-05-11T21:18:09.840Z,0
2019-05-11T21:18:50.264Z,0
2019-05-11T21:19:30.801Z,0
2019-05-11T21:20:12.094Z,0
2019-05-11T21:23:37.630Z,0
2019-05-11T21:24:19.732Z,0
2019-05-11T21:25:02.014Z,0
2019-05-11T21:29:08.512Z,0
2019-05-11T21:29:49.066Z,0
2019-05-11T21:30:28.242Z,0
2019-05-11T21:33:18.529Z,0
2019-05-11T21:33:58.883Z,0
2019-05-11T21:34:40.633Z,0
2019-05-11T21:35:21.533Z,0
2019-05-11T21:36:01.913Z,0
2019-05-11T21:37:29.644Z,0
2019-05-11T21:38:10.121Z,0
2019-05-11T21:42:18.125Z,0
2019-05-11T21:42:58.167Z,0
2019-05-11T21:43:38.415Z,0
2019-05-11T21:44:18.983Z,0
2019-05-11T21:44:59.157Z,0
2019-05-11T21:50:27.984Z,0
2019-05-11T21:51:08.606Z,0
2019-05-11T21:52:02.483Z,0
2019-05-11T21:52:30.859Z,0
2019-05-11T21:53:12.406Z,0
2019-05-11T21:54:51.717Z,0
2019-05-11T21:58:18.918Z,0
2019-05-11T21:59:01.397Z,0
2019-05-11T22:02:28.669Z,0
2019-05-11T22:03:11.216Z,0
2019-05-11T22:04:38.831Z,0